createdAt,value
2022-08-17T00:00:43.078Z,21.98
2022-08-17T00:03:23.759Z,22.45
2022-08-17T00:05:58.891Z,22.17
2022-08-17T00:08:36.061Z,22.08
2022-08-17T00:11:13.417Z,21.13
2022-08-17T00:13:50.549Z,21.30
2022-08-17T00:16:57.474Z,20.08
2022-08-17T00:19:29.470Z,20.55
2022-08-17T00:22:34.308Z,20.27
2022-08-17T00:25:01.545Z,19.85
2022-08-17T00:27:37.960Z,19.42
2022-08-17T00:30:15.977Z,18.02
2022-08-17T00:33:14.245Z,18.90
2022-08-17T00:35:46.486Z,18.65
2022-08-17T00:38:20.825Z,19.38
2022-08-17T00:40:59.156Z,19.08
2022-08-17T00:43:39.171Z,19.15
2022-08-17T00:46:15.848Z,18.63
2022-08-17T00:48:49.742Z,17.73
2022-08-17T00:51:30.918Z,17.83
2022-08-17T00:54:11.122Z,18.13
2022-08-17T00:56:57.825Z,19.05
2022-08-17T00:59:38.277Z,18.50
2022-08-17T01:02:17.777Z,18.65
2022-08-17T01:04:54.559Z,18.52
2022-08-17T01:07:29.789Z,17.90
2022-08-17T01:10:05.822Z,17.77
2022-08-17T01:12:45.747Z,18.10
2022-08-17T01:15:21.623Z,18.23
2022-08-17T01:18:06.923Z,18.95
2022-08-17T01:20:48.570Z,19.58
2022-08-17T01:23:27.484Z,19.08
2022-08-17T01:29:02.251Z,18.27
2022-08-17T01:31:54.722Z,18.40
2022-08-17T01:34:42.650Z,18.63
2022-08-17T01:37:18.253Z,18.55
2022-08-17T01:39:57.750Z,19.30
2022-08-17T01:42:38.420Z,19.40
2022-08-17T01:45:20.372Z,18.95
2022-08-17T01:47:54.450Z,18.35
2022-08-17T01:50:31.621Z,19.05
2022-08-17T01:53:08.407Z,19.23
2022-08-17T01:55:48.207Z,19.27
2022-08-17T01:58:22.551Z,19.60
2022-08-17T02:01:00.649Z,19.33
2022-08-17T02:03:36.310Z,18.70
2022-08-17T02:06:27.970Z,19.30
2022-08-17T02:09:03.572Z,20.10
2022-08-17T02:11:41.483Z,19.85
2022-08-17T02:14:15.172Z,19.70
2022-08-17T02:16:54.414Z,19.05
2022-08-17T02:19:28.652Z,19.38
2022-08-17T02:22:04.190Z,19.90
2022-08-17T02:25:00.419Z,19.60
2022-08-17T02:27:35.440Z,20.30
2022-08-17T02:31:00.038Z,19.02
2022-08-17T02:33:10.203Z,19.92
2022-08-17T02:35:45.238Z,19.65
2022-08-17T02:38:19.494Z,18.88
2022-08-17T02:40:53.512Z,18.75
2022-08-17T02:43:28.683Z,18.15
2022-08-17T02:46:02.509Z,19.25
2022-08-17T02:48:36.517Z,20.17
2022-08-17T02:51:13.223Z,20.02
2022-08-17T02:53:48.721Z,18.65
2022-08-17T02:56:22.901Z,18.80
2022-08-17T02:58:59.968Z,19.35
2022-08-17T03:01:34.228Z,19.27
2022-08-17T03:04:08.683Z,20.27
2022-08-17T03:06:42.566Z,18.40
2022-08-17T03:09:22.407Z,19.05
2022-08-17T03:11:56.042Z,18.88
2022-08-17T03:14:36.995Z,18.92
2022-08-17T03:17:17.158Z,19.02
2022-08-17T03:19:54.547Z,18.42
2022-08-17T03:22:38.634Z,18.10
2022-08-17T03:25:14.702Z,18.50
2022-08-17T03:27:52.807Z,19.27
2022-08-17T03:30:29.128Z,20.58
2022-08-17T03:33:04.371Z,20.05
2022-08-17T03:35:43.019Z,20.75
2022-08-17T03:38:18.781Z,18.88
2022-08-17T03:40:57.256Z,19.98
2022-08-17T03:43:36.231Z,19.27
2022-08-17T03:46:34.406Z,19.77
2022-08-17T03:49:26.814Z,21.75
2022-08-17T03:52:17.022Z,22.00
2022-08-17T03:55:07.223Z,22.20
2022-08-17T03:57:41.573Z,21.25
2022-08-17T04:00:16.598Z,21.80
2022-08-17T04:02:53.959Z,20.58
2022-08-17T04:05:27.873Z,21.42
2022-08-17T04:08:02.059Z,20.88
2022-08-17T04:10:41.367Z,20.05
2022-08-17T04:13:24.226Z,21.05
2022-08-17T04:16:01.438Z,21.80
2022-08-17T04:18:39.523Z,20.50
2022-08-17T04:21:14.438Z,22.30
2022-08-17T04:23:50.327Z,21.98
2022-08-17T04:26:52.877Z,21.35
2022-08-17T04:29:18.780Z,22.05
2022-08-17T04:31:53.127Z,19.50
2022-08-17T04:34:28.500Z,21.70
2022-08-17T04:37:09.211Z,22.17
2022-08-17T04:40:04.361Z,21.85
2022-08-17T04:42:37.483Z,21.85
2022-08-17T04:45:12.079Z,20.95
2022-08-17T04:47:48.249Z,21.33
2022-08-17T04:50:23.776Z,21.27
2022-08-17T04:52:57.583Z,22.52
2022-08-17T04:55:32.666Z,21.23
2022-08-17T04:58:06.784Z,22.75
2022-08-17T05:00:42.239Z,21.27
2022-08-17T05:03:16.086Z,21.10
2022-08-17T05:05:53.613Z,20.85
2022-08-17T05:08:28.006Z,21.65
2022-08-17T05:11:01.712Z,21.52
2022-08-17T05:13:35.725Z,21.67
2022-08-17T05:16:11.829Z,21.40
2022-08-17T05:18:46.231Z,20.73
2022-08-17T05:21:23.319Z,20.88
2022-08-17T05:23:59.796Z,21.80
2022-08-17T05:26:33.167Z,21.73
2022-08-17T05:29:19.135Z,22.40
2022-08-17T05:31:52.992Z,21.85
2022-08-17T05:37:29.509Z,21.48
2022-08-17T05:40:03.644Z,20.85
2022-08-17T05:42:38.169Z,22.40
2022-08-17T05:45:13.243Z,22.85
2022-08-17T05:50:47.038Z,21.50
2022-08-17T05:53:32.018Z,21.42
2022-08-17T05:56:22.700Z,20.90
2022-08-17T05:59:13.226Z,21.45
2022-08-17T06:01:59.695Z,20.85
2022-08-17T06:04:44.084Z,22.35
2022-08-17T06:07:24.959Z,21.75
2022-08-17T06:10:09.576Z,21.65
2022-08-17T06:12:58.065Z,20.83
2022-08-17T06:15:36.120Z,20.73
2022-08-17T06:18:18.927Z,21.02
2022-08-17T06:20:57.502Z,20.83
2022-08-17T06:23:39.251Z,20.95
2022-08-17T06:26:21.871Z,21.88
2022-08-17T06:29:04.391Z,21.35
2022-08-17T06:31:44.494Z,21.02
2022-08-17T06:34:18.956Z,22.40
2022-08-17T06:37:00.321Z,21.85
2022-08-17T06:39:48.761Z,21.85
2022-08-17T06:43:02.751Z,21.17
2022-08-17T06:45:50.723Z,21.10
2022-08-17T06:48:28.699Z,20.88
2022-08-17T06:51:07.130Z,21.15
2022-08-17T06:53:47.312Z,20.83
2022-08-17T06:56:52.987Z,19.83
2022-08-17T06:59:54.955Z,20.13
2022-08-17T07:02:52.317Z,19.15
2022-08-17T07:05:30.144Z,19.42
2022-08-17T07:08:12.877Z,21.02
2022-08-17T07:10:51.686Z,21.40
2022-08-17T07:13:38.951Z,21.25
2022-08-17T07:16:21.787Z,20.38
2022-08-17T07:18:58.179Z,20.48
2022-08-17T07:21:47.790Z,20.50
2022-08-17T07:24:41.511Z,19.48
2022-08-17T07:27:20.088Z,19.67
2022-08-17T07:29:58.663Z,20.52
2022-08-17T07:32:44.936Z,21.35
2022-08-17T07:35:37.690Z,21.58
2022-08-17T07:38:24.896Z,21.42
2022-08-17T07:41:10.116Z,21.27
2022-08-17T07:43:55.451Z,20.15
2022-08-17T07:46:46.801Z,20.67
2022-08-17T07:49:29.531Z,19.90
2022-08-17T07:52:48.114Z,20.17
2022-08-17T07:55:05.093Z,19.83
2022-08-17T07:57:46.686Z,19.48
2022-08-17T08:00:31.392Z,21.40
2022-08-17T08:03:17.275Z,20.63
2022-08-17T08:06:01.549Z,18.83
2022-08-17T08:08:45.461Z,18.92
2022-08-17T08:11:35.827Z,19.38
2022-08-17T08:14:31.185Z,19.75
2022-08-17T08:17:07.235Z,19.58
2022-08-17T08:19:43.853Z,18.63
2022-08-17T08:22:32.395Z,18.98
2022-08-17T08:25:20.107Z,18.70
2022-08-17T08:28:04.532Z,18.95
2022-08-17T08:30:45.474Z,18.55
2022-08-17T08:33:41.026Z,18.98
2022-08-17T08:37:14.574Z,18.52
2022-08-17T08:39:29.957Z,20.30
2022-08-17T08:42:12.284Z,19.67
2022-08-17T08:45:00.177Z,19.33
2022-08-17T08:47:57.868Z,19.30
2022-08-17T08:50:49.175Z,20.60
2022-08-17T08:53:31.915Z,20.23
2022-08-17T08:56:13.550Z,19.67
2022-08-17T08:58:56.574Z,19.00
2022-08-17T09:01:41.786Z,20.35
2022-08-17T09:05:02.603Z,20.17
2022-08-17T09:07:42.724Z,20.90
2022-08-17T09:10:27.781Z,20.17
2022-08-17T09:13:10.806Z,19.80
2022-08-17T09:15:52.598Z,20.10
2022-08-17T09:19:01.660Z,20.90
2022-08-17T09:21:33.934Z,19.48
2022-08-17T09:24:14.200Z,19.55
2022-08-17T09:27:01.821Z,19.42
2022-08-17T09:29:41.985Z,20.70
2022-08-17T09:32:23.680Z,20.17
2022-08-17T09:34:58.652Z,21.08
2022-08-17T09:37:38.199Z,21.35
2022-08-17T09:40:20.300Z,20.27
2022-08-17T09:42:57.727Z,21.15
2022-08-17T09:45:38.927Z,20.23
2022-08-17T09:48:19.348Z,20.73
2022-08-17T09:51:04.605Z,19.67
2022-08-17T09:53:44.555Z,20.40
2022-08-17T09:56:29.971Z,20.45
2022-08-17T09:59:21.708Z,19.80
2022-08-17T10:02:05.740Z,20.85
2022-08-17T10:04:46.561Z,19.88
2022-08-17T10:07:23.772Z,20.80
2022-08-17T10:10:10.824Z,21.10
2022-08-17T10:12:55.780Z,21.55
2022-08-17T10:15:42.685Z,20.83
2022-08-17T10:18:36.870Z,20.95
2022-08-17T10:21:30.351Z,21.30
2022-08-17T10:24:29.640Z,21.25
2022-08-17T10:27:05.859Z,21.17
2022-08-17T10:29:49.114Z,22.17
2022-08-17T10:32:37.580Z,21.30
2022-08-17T10:35:37.492Z,21.60
2022-08-17T10:38:39.847Z,20.90
2022-08-17T10:41:29.007Z,21.67
2022-08-17T10:44:40.457Z,21.42
2022-08-17T10:47:12.164Z,20.98
2022-08-17T10:49:50.770Z,21.77
2022-08-17T10:52:56.322Z,21.00
2022-08-17T10:55:31.759Z,21.45
2022-08-17T10:58:27.155Z,21.85
2022-08-17T11:01:05.058Z,21.45
2022-08-17T11:03:41.079Z,21.63
2022-08-17T11:06:24.962Z,20.92
2022-08-17T11:09:46.071Z,21.02
2022-08-17T11:12:38.696Z,22.00
2022-08-17T11:15:36.809Z,20.73
2022-08-17T11:18:34.552Z,19.48
2022-08-17T11:21:29.054Z,20.45
2022-08-17T11:24:34.996Z,21.27
2022-08-17T11:27:19.791Z,20.30
2022-08-17T11:30:02.226Z,20.38
2022-08-17T11:32:47.330Z,19.13
2022-08-17T11:35:42.177Z,19.77
2022-08-17T11:38:28.433Z,20.23
2022-08-17T11:41:25.172Z,20.63
2022-08-17T11:44:38.881Z,20.02
2022-08-17T11:47:38.065Z,20.38
2022-08-17T11:50:51.164Z,19.00
2022-08-17T11:54:30.667Z,20.73
2022-08-17T11:56:56.032Z,19.90
2022-08-17T12:00:04.422Z,20.23
2022-08-17T12:02:48.615Z,20.50
2022-08-17T12:05:37.668Z,20.25
2022-08-17T12:08:19.684Z,19.58
2022-08-17T12:11:12.774Z,19.77
2022-08-17T12:13:53.835Z,20.38
2022-08-17T12:16:29.669Z,20.70
2022-08-17T12:19:06.455Z,21.30
2022-08-17T12:21:50.326Z,20.58
2022-08-17T12:24:36.695Z,21.02
2022-08-17T12:27:14.615Z,20.90
2022-08-17T12:29:50.125Z,21.80
2022-08-17T12:32:27.857Z,20.50
2022-08-17T12:35:02.645Z,20.75
2022-08-17T12:37:39.438Z,20.83
2022-08-17T12:40:24.911Z,22.13
2022-08-17T12:43:05.401Z,22.00
2022-08-17T12:45:42.214Z,21.85
2022-08-17T12:48:27.266Z,20.98
2022-08-17T12:51:09.156Z,21.83
2022-08-17T12:53:47.139Z,21.85
2022-08-17T12:56:22.601Z,22.25
2022-08-17T12:58:58.107Z,22.65
2022-08-17T13:01:32.031Z,22.90
2022-08-17T13:04:09.162Z,21.98
2022-08-17T13:06:50.485Z,22.80
2022-08-17T13:09:35.700Z,22.48
2022-08-17T13:12:16.435Z,23.80
2022-08-17T13:14:52.310Z,24.00
2022-08-17T13:17:36.038Z,23.23
2022-08-17T13:20:21.779Z,22.80
2022-08-17T13:23:01.284Z,23.58
2022-08-17T13:25:37.447Z,22.38
2022-08-17T13:28:30.710Z,22.35
2022-08-17T13:31:49.184Z,22.02
2022-08-17T13:35:07.801Z,22.85
2022-08-17T13:37:40.590Z,22.60
2022-08-17T13:40:36.121Z,23.58
2022-08-17T13:43:11.770Z,23.10
2022-08-17T13:45:55.737Z,22.67
2022-08-17T13:48:34.171Z,23.95
2022-08-17T13:51:27.756Z,22.88
2022-08-17T13:54:13.631Z,24.70
2022-08-17T13:59:55.500Z,23.17
2022-08-17T14:02:31.777Z,23.20
2022-08-17T14:05:07.844Z,24.50
2022-08-17T14:07:46.529Z,24.17
2022-08-17T14:10:25.413Z,23.65
2022-08-17T14:13:00.961Z,23.63
2022-08-17T14:15:54.965Z,24.83
2022-08-17T14:18:55.549Z,25.13
2022-08-17T14:21:28.625Z,25.25
2022-08-17T14:24:29.456Z,24.15
2022-08-17T14:27:07.719Z,24.83
2022-08-17T14:29:49.698Z,26.20
2022-08-17T14:32:25.456Z,25.55
2022-08-17T14:35:01.204Z,24.58
2022-08-17T14:37:41.289Z,23.92
2022-08-17T14:40:18.276Z,23.60
2022-08-17T14:42:56.317Z,24.55
2022-08-17T14:45:32.656Z,25.10
2022-08-17T14:48:15.061Z,25.23
2022-08-17T14:50:49.528Z,25.27
2022-08-17T14:53:25.057Z,24.90
2022-08-17T14:56:00.752Z,26.33
2022-08-17T14:58:36.848Z,25.75
2022-08-17T15:01:15.978Z,27.02
2022-08-17T15:03:51.812Z,28.40
2022-08-17T15:06:27.506Z,28.15
2022-08-17T15:09:06.170Z,27.52
2022-08-17T15:11:42.564Z,27.63
2022-08-17T15:14:20.074Z,24.75
2022-08-17T15:16:59.196Z,23.90
2022-08-17T15:19:34.737Z,21.83
2022-08-17T15:22:09.307Z,20.00
2022-08-17T15:24:44.239Z,22.27
2022-08-17T15:27:31.526Z,21.10
2022-08-17T15:30:14.754Z,20.17
2022-08-17T15:32:54.916Z,21.13
2022-08-17T15:35:32.771Z,19.52
2022-08-17T15:38:12.047Z,20.38
2022-08-17T15:40:49.406Z,21.50
2022-08-17T15:43:27.829Z,20.25
2022-08-17T15:46:08.920Z,22.45
2022-08-17T15:48:45.701Z,21.10
2022-08-17T15:51:21.973Z,21.15
2022-08-17T15:53:58.941Z,21.60
2022-08-17T15:56:35.754Z,20.98
2022-08-17T15:59:11.768Z,24.58
2022-08-17T16:03:13.819Z,24.27
2022-08-17T16:04:44.112Z,21.15
2022-08-17T16:07:24.373Z,21.25
2022-08-17T16:10:02.256Z,22.70
2022-08-17T16:12:40.500Z,22.58
2022-08-17T16:15:15.644Z,22.98
2022-08-17T16:17:53.386Z,23.90
2022-08-17T16:20:28.471Z,19.65
2022-08-17T16:23:06.211Z,20.48
2022-08-17T16:25:53.899Z,20.42
2022-08-17T16:28:36.039Z,20.65
2022-08-17T16:31:11.389Z,20.95
2022-08-17T16:33:58.436Z,19.95
2022-08-17T16:36:55.332Z,20.98
2022-08-17T16:39:32.768Z,21.10
2022-08-17T16:42:08.349Z,20.77
2022-08-17T16:44:44.031Z,20.73
2022-08-17T16:47:21.032Z,20.25
2022-08-17T16:49:58.364Z,20.65
2022-08-17T16:52:34.026Z,22.42
2022-08-17T16:55:13.366Z,21.02
2022-08-17T16:57:50.249Z,21.13
2022-08-17T17:00:27.065Z,21.85
2022-08-17T17:03:19.654Z,21.00
2022-08-17T17:06:06.642Z,21.70
2022-08-17T17:08:48.704Z,21.65
2022-08-17T17:11:33.257Z,20.45
2022-08-17T17:14:10.876Z,20.67
2022-08-17T17:16:49.645Z,20.73
2022-08-17T17:19:35.258Z,20.58
2022-08-17T17:22:20.255Z,20.83
2022-08-17T17:25:05.525Z,21.70
2022-08-17T17:27:48.765Z,22.70
2022-08-17T17:33:19.229Z,21.38
2022-08-17T17:35:55.825Z,24.67
2022-08-17T17:38:36.368Z,29.13
2022-08-17T17:41:16.763Z,32.08
2022-08-17T17:43:53.999Z,33.65
2022-08-17T17:46:33.262Z,32.72
2022-08-17T17:49:08.119Z,29.95
2022-08-17T17:52:09.202Z,28.60
2022-08-17T17:54:57.709Z,26.52
2022-08-17T17:57:45.417Z,26.90
2022-08-17T18:00:23.496Z,27.42
2022-08-17T18:03:13.714Z,27.40
2022-08-17T18:06:10.392Z,26.52
2022-08-17T18:08:56.489Z,27.30
2022-08-17T18:11:50.777Z,26.08
2022-08-17T18:14:35.773Z,26.33
2022-08-17T18:17:10.586Z,27.17
2022-08-17T18:19:45.067Z,28.77
2022-08-17T18:22:20.992Z,29.58
2022-08-17T18:25:03.835Z,30.40
2022-08-17T18:27:51.015Z,31.42
2022-08-17T18:30:31.372Z,36.38
2022-08-17T18:33:24.963Z,34.70
2022-08-17T18:36:01.411Z,36.03
2022-08-17T18:38:36.820Z,35.10
2022-08-17T18:41:25.230Z,35.35
2022-08-17T18:44:08.045Z,33.25
2022-08-17T18:46:42.295Z,32.95
2022-08-17T18:49:32.848Z,33.15
2022-08-17T18:52:19.839Z,33.80
2022-08-17T18:55:12.328Z,34.22
2022-08-17T18:57:51.084Z,35.25
2022-08-17T19:00:39.789Z,33.95
2022-08-17T19:03:27.702Z,36.05
2022-08-17T19:06:32.320Z,36.75
2022-08-17T19:09:06.529Z,37.92
2022-08-17T19:11:41.056Z,35.08
2022-08-17T19:14:21.036Z,36.10
2022-08-17T19:16:58.732Z,36.55
2022-08-17T19:19:39.526Z,35.63
2022-08-17T19:22:30.672Z,36.97
2022-08-17T19:25:17.207Z,37.42
2022-08-17T19:27:57.769Z,37.10
2022-08-17T19:30:32.062Z,37.97
2022-08-17T19:33:07.859Z,38.08
2022-08-17T19:35:53.188Z,39.65
2022-08-17T19:38:37.719Z,37.35
2022-08-17T19:41:20.152Z,38.40
2022-08-17T19:44:14.214Z,37.35
2022-08-17T19:47:00.877Z,39.47
2022-08-17T19:49:48.046Z,38.40
2022-08-17T19:52:50.825Z,38.88
2022-08-17T19:55:34.388Z,37.72
2022-08-17T19:58:18.000Z,36.45
2022-08-17T20:00:55.941Z,37.45
2022-08-17T20:03:36.407Z,36.17
2022-08-17T20:06:16.702Z,33.78
2022-08-17T20:08:59.126Z,31.42
2022-08-17T20:11:38.371Z,32.42
2022-08-17T20:14:16.729Z,31.02
2022-08-17T20:16:50.292Z,31.40
2022-08-17T20:19:31.854Z,30.77
2022-08-17T20:22:13.844Z,31.33
2022-08-17T20:24:52.270Z,31.08
2022-08-17T20:27:32.057Z,30.25
2022-08-17T20:30:16.693Z,26.83
2022-08-17T20:32:58.625Z,27.15
2022-08-17T20:35:33.710Z,26.30
2022-08-17T20:38:12.176Z,26.30
2022-08-17T20:41:16.659Z,27.70
2022-08-17T20:44:07.806Z,27.00
2022-08-17T20:46:59.395Z,27.65
2022-08-17T20:49:43.911Z,28.17
2022-08-17T20:53:01.451Z,28.20
2022-08-17T20:55:59.496Z,26.85
2022-08-17T20:58:51.115Z,27.58
2022-08-17T21:01:41.165Z,27.95
2022-08-17T21:04:48.623Z,27.70
2022-08-17T21:07:33.144Z,27.63
2022-08-17T21:10:21.097Z,28.27
2022-08-17T21:13:03.075Z,29.50
2022-08-17T21:15:43.047Z,30.48
2022-08-17T21:18:21.381Z,30.90
2022-08-17T21:21:12.985Z,29.83
2022-08-17T21:24:09.518Z,28.98
2022-08-17T21:27:04.314Z,27.88
2022-08-17T21:29:54.383Z,26.33
2022-08-17T21:32:35.877Z,24.88
2022-08-17T21:35:58.758Z,23.50
2022-08-17T21:38:41.287Z,21.02
2022-08-17T21:41:25.275Z,20.25
2022-08-17T21:44:05.020Z,19.23
2022-08-17T21:46:46.579Z,19.70
2022-08-17T21:49:22.057Z,20.08
2022-08-17T21:52:03.639Z,18.73
2022-08-17T21:54:40.040Z,19.05
2022-08-17T21:57:23.800Z,18.23
2022-08-17T22:00:02.323Z,18.67
2022-08-17T22:02:45.732Z,18.50
2022-08-17T22:05:20.334Z,18.52
2022-08-17T22:08:03.658Z,19.23
2022-08-17T22:10:41.164Z,17.17
2022-08-17T22:13:17.508Z,17.45
2022-08-17T22:15:54.431Z,17.50
2022-08-17T22:18:31.381Z,16.73
2022-08-17T22:21:08.701Z,18.05
2022-08-17T22:24:00.193Z,17.77
2022-08-17T22:27:04.343Z,19.05
2022-08-17T22:29:57.377Z,18.02
2022-08-17T22:32:44.364Z,17.77
2022-08-17T22:35:48.999Z,18.88
2022-08-17T22:38:40.667Z,17.90
2022-08-17T22:41:35.672Z,17.27
2022-08-17T22:44:30.787Z,18.67
2022-08-17T22:47:11.496Z,17.48
2022-08-17T22:49:54.525Z,18.05
2022-08-17T22:52:37.210Z,17.10
2022-08-17T22:55:35.602Z,17.13
2022-08-17T22:58:32.327Z,16.98
2022-08-17T23:01:28.307Z,17.50
2022-08-17T23:04:04.425Z,17.85
2022-08-17T23:06:39.596Z,16.60
2022-08-17T23:09:15.305Z,16.25
2022-08-17T23:11:50.959Z,16.42
2022-08-17T23:14:25.620Z,15.38
2022-08-17T23:16:58.678Z,15.00
2022-08-17T23:19:34.204Z,15.18
2022-08-17T23:22:10.732Z,15.65
2022-08-17T23:24:52.532Z,15.27
2022-08-17T23:27:30.728Z,18.45
2022-08-17T23:30:04.378Z,16.65
2022-08-17T23:32:38.460Z,15.70
2022-08-17T23:35:40.635Z,14.57
2022-08-17T23:38:15.883Z,15.27
2022-08-17T23:40:51.718Z,15.02
2022-08-17T23:43:28.278Z,14.32
2022-08-17T23:46:05.127Z,14.13
2022-08-17T23:48:38.835Z,14.63
2022-08-17T23:51:18.079Z,14.90
2022-08-17T23:53:55.812Z,14.52
2022-08-17T23:56:30.758Z,15.30
2022-08-17T23:59:04.386Z,14.70
